createdAt,value
2016-12-31T00:00:18.385Z,1020.01
2016-12-31T00:00:59.028Z,1019.96
2016-12-31T00:01:39.656Z,1020
2016-12-31T00:02:20.303Z,1019.96
2016-12-31T00:03:00.928Z,1019.96
2016-12-31T00:03:41.623Z,1019.94
2016-12-31T00:04:22.236Z,1019.98
2016-12-31T00:05:02.864Z,1019.98
2016-12-31T00:05:43.503Z,1019.95
2016-12-31T00:06:24.136Z,1019.92
2016-12-31T00:07:04.764Z,1019.95
2016-12-31T00:07:45.398Z,1019.91
2016-12-31T00:08:26.031Z,1019.93
2016-12-31T00:09:06.764Z,1019.88
2016-12-31T00:09:47.420Z,1019.87
2016-12-31T00:10:28.059Z,1019.88
2016-12-31T00:11:08.689Z,1019.9
2016-12-31T00:11:49.335Z,1019.86
2016-12-31T00:12:29.977Z,1019.85
2016-12-31T00:13:10.624Z,1019.86
2016-12-31T00:13:51.269Z,1019.85
2016-12-31T00:14:31.910Z,1019.83
2016-12-31T00:15:12.598Z,1019.77
2016-12-31T00:15:53.242Z,1019.77
2016-12-31T00:16:33.864Z,1019.8
2016-12-31T00:17:14.535Z,1019.8
2016-12-31T00:17:55.175Z,1019.73
2016-12-31T00:18:35.813Z,1019.77
2016-12-31T00:19:16.535Z,1019.77
2016-12-31T00:19:57.158Z,1019.74
2016-12-31T00:20:37.811Z,1019.75
2016-12-31T00:21:18.520Z,1019.73
2016-12-31T00:21:59.182Z,1019.75
2016-12-31T00:22:39.911Z,1019.76
2016-12-31T00:23:20.597Z,1019.73
2016-12-31T00:24:01.311Z,1019.73
2016-12-31T00:24:41.946Z,1019.72
2016-12-31T00:25:22.582Z,1019.73
2016-12-31T00:26:03.285Z,1019.74
2016-12-31T00:26:43.926Z,1019.69
2016-12-31T00:27:24.558Z,1019.74
2016-12-31T00:28:05.263Z,1019.71
2016-12-31T00:28:45.914Z,1019.69
2016-12-31T00:29:26.619Z,1019.69
2016-12-31T00:30:07.271Z,1019.69
2016-12-31T00:30:47.908Z,1019.69
2016-12-31T00:31:28.565Z,1019.7
2016-12-31T00:32:09.192Z,1019.73
2016-12-31T00:32:49.835Z,1019.69
2016-12-31T00:33:30.494Z,1019.7
2016-12-31T00:34:11.142Z,1019.7
2016-12-31T00:34:51.783Z,1019.7
2016-12-31T00:35:32.421Z,1019.69
2016-12-31T00:36:13.046Z,1019.66
2016-12-31T00:36:53.684Z,1019.67
2016-12-31T00:37:34.330Z,1019.66
2016-12-31T00:38:14.965Z,1019.68
2016-12-31T00:38:55.599Z,1019.67
2016-12-31T00:39:36.234Z,1019.65
2016-12-31T00:40:16.863Z,1019.65
2016-12-31T00:40:57.538Z,1019.73
2016-12-31T00:41:38.168Z,1019.68
2016-12-31T00:42:18.822Z,1019.66
2016-12-31T00:42:59.470Z,1019.71
2016-12-31T00:43:40.118Z,1019.69
2016-12-31T00:44:20.753Z,1019.68
2016-12-31T00:45:01.374Z,1019.7
2016-12-31T00:45:42.011Z,1019.68
2016-12-31T00:46:22.638Z,1019.7
2016-12-31T00:47:03.275Z,1019.69
2016-12-31T00:47:43.917Z,1019.69
2016-12-31T00:48:24.549Z,1019.7
2016-12-31T00:49:05.236Z,1019.68
2016-12-31T00:49:45.869Z,1019.67
2016-12-31T00:50:26.518Z,1019.72
2016-12-31T00:51:07.191Z,1019.72
2016-12-31T00:51:47.875Z,1019.72
2016-12-31T00:52:28.514Z,1019.71
2016-12-31T00:53:09.148Z,1019.74
2016-12-31T00:53:49.771Z,1019.77
2016-12-31T00:54:30.410Z,1019.79
2016-12-31T00:55:11.046Z,1019.76
2016-12-31T00:55:51.678Z,1019.79
2016-12-31T00:56:32.332Z,1019.72
2016-12-31T00:57:12.968Z,1019.73
2016-12-31T00:57:53.646Z,1019.73
2016-12-31T00:58:34.291Z,1019.75
2016-12-31T00:59:14.934Z,1019.73
2016-12-31T00:59:55.555Z,1019.73
2016-12-31T01:00:36.203Z,1019.7
2016-12-31T01:01:16.821Z,1019.68
2016-12-31T01:01:57.453Z,1019.71
2016-12-31T01:02:38.079Z,1019.69
2016-12-31T01:03:18.743Z,1019.65
2016-12-31T01:03:59.381Z,1019.7
2016-12-31T01:04:40.014Z,1019.67
2016-12-31T01:05:20.697Z,1019.67
2016-12-31T01:06:01.324Z,1019.64
2016-12-31T01:06:41.982Z,1019.59
2016-12-31T01:07:22.632Z,1019.58
2016-12-31T01:08:03.267Z,1019.59
2016-12-31T01:08:43.922Z,1019.58
2016-12-31T01:09:24.563Z,1019.58
2016-12-31T01:10:05.193Z,1019.56
2016-12-31T01:10:45.831Z,1019.54
2016-12-31T01:11:26.481Z,1019.55
2016-12-31T01:12:07.109Z,1019.59
2016-12-31T01:12:47.748Z,1019.57
2016-12-31T01:13:28.424Z,1019.6
2016-12-31T01:14:09.062Z,1019.56
2016-12-31T01:14:49.712Z,1019.55
2016-12-31T01:15:30.333Z,1019.59
2016-12-31T01:16:10.960Z,1019.56
2016-12-31T01:16:51.596Z,1019.61
2016-12-31T01:17:32.218Z,1019.57
2016-12-31T01:18:12.862Z,1019.54
2016-12-31T01:18:53.538Z,1019.55
2016-12-31T01:19:34.185Z,1019.53
2016-12-31T01:20:14.827Z,1019.55
2016-12-31T01:20:55.554Z,1019.53
2016-12-31T01:21:36.097Z,1019.55
2016-12-31T01:22:16.736Z,1019.55
2016-12-31T01:22:57.359Z,1019.53
2016-12-31T01:23:37.998Z,1019.53
2016-12-31T01:24:18.648Z,1019.51
2016-12-31T01:24:59.283Z,1019.52
2016-12-31T01:25:39.914Z,1019.48
2016-12-31T01:26:20.549Z,1019.5
2016-12-31T01:27:01.258Z,1019.45
2016-12-31T01:27:41.855Z,1019.45
2016-12-31T01:28:22.537Z,1019.45
2016-12-31T01:29:03.169Z,1019.49
2016-12-31T01:29:43.799Z,1019.4
2016-12-31T01:30:24.470Z,1019.44
2016-12-31T01:31:05.115Z,1019.44
2016-12-31T01:31:45.750Z,1019.45
2016-12-31T01:32:26.434Z,1019.41
2016-12-31T01:33:07.071Z,1019.42
2016-12-31T01:33:47.698Z,1019.38
2016-12-31T01:34:28.367Z,1019.41
2016-12-31T01:35:08.996Z,1019.4
2016-12-31T01:35:49.621Z,1019.38
2016-12-31T01:36:30.271Z,1019.36
2016-12-31T01:37:11.711Z,1019.4
2016-12-31T01:37:52.347Z,1019.37
2016-12-31T01:38:32.980Z,1019.37
2016-12-31T01:39:13.601Z,1019.4
2016-12-31T01:39:54.238Z,1019.37
2016-12-31T01:40:34.886Z,1019.36
2016-12-31T01:41:15.531Z,1019.31
2016-12-31T01:41:56.160Z,1019.32
2016-12-31T01:42:36.800Z,1019.31
2016-12-31T01:43:17.439Z,1019.26
2016-12-31T01:43:58.121Z,1019.29
2016-12-31T01:44:38.749Z,1019.33
2016-12-31T01:45:19.381Z,1019.31
2016-12-31T01:46:00.017Z,1019.28
2016-12-31T01:46:40.646Z,1019.3
2016-12-31T01:47:21.281Z,1019.29
2016-12-31T01:48:01.916Z,1019.26
2016-12-31T01:48:42.553Z,1019.29
2016-12-31T01:49:23.183Z,1019.26
2016-12-31T01:50:03.878Z,1019.23
2016-12-31T01:50:44.521Z,1019.25
2016-12-31T01:51:25.151Z,1019.24
2016-12-31T01:52:05.876Z,1019.24
2016-12-31T01:52:46.491Z,1019.19
2016-12-31T01:53:27.122Z,1019.17
2016-12-31T01:54:07.748Z,1019.2
2016-12-31T01:54:48.462Z,1019.2
2016-12-31T01:55:29.206Z,1019.2
2016-12-31T01:56:09.860Z,1019.16
2016-12-31T01:56:50.485Z,1019.21
2016-12-31T01:57:31.131Z,1019.17
2016-12-31T01:58:11.756Z,1019.15
2016-12-31T01:58:52.410Z,1019.18
2016-12-31T01:59:33.040Z,1019.15
2016-12-31T02:00:13.672Z,1019.13
2016-12-31T02:00:54.344Z,1019.16
2016-12-31T02:01:34.982Z,1019.17
2016-12-31T02:02:15.615Z,1019.14
2016-12-31T02:02:56.266Z,1019.14
2016-12-31T02:03:36.897Z,1019.12
2016-12-31T02:04:17.532Z,1019.14
2016-12-31T02:04:58.162Z,1019.13
2016-12-31T02:05:38.797Z,1019.18
2016-12-31T02:06:19.429Z,1019.15
2016-12-31T02:07:00.057Z,1019.14
2016-12-31T02:07:40.690Z,1019.18
2016-12-31T02:08:21.324Z,1019.17
2016-12-31T02:09:01.958Z,1019.12
2016-12-31T02:09:42.590Z,1019.17
2016-12-31T02:10:23.225Z,1019.12
2016-12-31T02:11:03.854Z,1019.17
2016-12-31T02:11:44.489Z,1019.11
2016-12-31T02:12:25.116Z,1019.11
2016-12-31T02:13:05.757Z,1019.14
2016-12-31T02:13:46.382Z,1019.09
2016-12-31T02:14:27.017Z,1019.11
2016-12-31T02:15:07.652Z,1019.12
2016-12-31T02:15:48.280Z,1019.09
2016-12-31T02:16:28.928Z,1019.13
2016-12-31T02:17:09.557Z,1019.12
2016-12-31T02:17:50.203Z,1019.12
2016-12-31T02:18:30.831Z,1019.13
2016-12-31T02:19:11.467Z,1019.17
2016-12-31T02:19:52.094Z,1019.13
2016-12-31T02:20:32.712Z,1019.16
2016-12-31T02:21:13.336Z,1019.2
2016-12-31T02:21:53.978Z,1019.13
2016-12-31T02:22:34.690Z,1019.17
2016-12-31T02:23:15.319Z,1019.13
2016-12-31T02:23:55.946Z,1019.13
2016-12-31T02:24:36.645Z,1019.11
2016-12-31T02:25:17.275Z,1019.1
2016-12-31T02:25:57.914Z,1019.1
2016-12-31T02:26:38.557Z,1019.11
2016-12-31T02:27:19.208Z,1019.12
2016-12-31T02:27:59.884Z,1019.13
2016-12-31T02:28:40.514Z,1019.1
2016-12-31T02:29:21.157Z,1019.09
2016-12-31T02:30:01.785Z,1019.11
2016-12-31T02:30:42.409Z,1019.09
2016-12-31T02:31:23.037Z,1019.07
2016-12-31T02:32:03.673Z,1019.06
2016-12-31T02:32:44.306Z,1019.07
2016-12-31T02:33:24.968Z,1019.06
2016-12-31T02:34:05.597Z,1019.06
2016-12-31T02:34:46.233Z,1019.07
2016-12-31T02:35:26.892Z,1019.06
2016-12-31T02:36:07.527Z,1019.01
2016-12-31T02:36:48.160Z,1019.02
2016-12-31T02:37:28.807Z,1019.05
2016-12-31T02:38:09.446Z,1019.05
2016-12-31T02:38:50.083Z,1019.05
2016-12-31T02:39:30.768Z,1019.03
2016-12-31T02:40:11.406Z,1019.08
2016-12-31T02:40:52.041Z,1019.09
2016-12-31T02:41:32.683Z,1019.05
2016-12-31T02:42:13.309Z,1019.08
2016-12-31T02:42:53.935Z,1019.07
2016-12-31T02:43:34.570Z,1019.11
2016-12-31T02:44:15.204Z,1019.1
2016-12-31T02:44:55.829Z,1019.08
2016-12-31T02:45:36.462Z,1019.05
2016-12-31T02:46:17.108Z,1019.08
2016-12-31T02:46:57.735Z,1019.07
2016-12-31T02:47:38.388Z,1019.07
2016-12-31T02:48:19.029Z,1019.08
2016-12-31T02:48:59.653Z,1019.05
2016-12-31T02:49:40.303Z,1019.04
2016-12-31T02:50:20.935Z,1019.07
2016-12-31T02:51:01.584Z,1019.07
2016-12-31T02:51:42.240Z,1019.06
2016-12-31T02:52:22.863Z,1019.06
2016-12-31T02:53:03.506Z,1019.05
2016-12-31T02:53:44.195Z,1019.03
2016-12-31T02:54:24.848Z,1019
2016-12-31T02:55:05.498Z,1019.05
2016-12-31T02:55:46.161Z,1019.05
2016-12-31T02:56:26.843Z,1019.01
2016-12-31T02:57:07.474Z,1019.04
2016-12-31T02:57:48.140Z,1018.99
2016-12-31T02:58:28.788Z,1019.01
2016-12-31T02:59:09.431Z,1019.07
2016-12-31T02:59:50.063Z,1019
2016-12-31T03:00:30.694Z,1019.01
2016-12-31T03:01:11.329Z,1019.05
2016-12-31T03:01:51.962Z,1019.03
2016-12-31T03:02:32.596Z,1019.02
2016-12-31T03:03:13.221Z,1019.05
2016-12-31T03:03:53.843Z,1019.05
2016-12-31T03:04:34.474Z,1019.06
2016-12-31T03:05:15.112Z,1019.03
2016-12-31T03:05:55.744Z,1019.05
2016-12-31T03:06:36.376Z,1019.03
2016-12-31T03:07:17.021Z,1019
2016-12-31T03:07:57.661Z,1019.03
2016-12-31T03:08:38.292Z,1019
2016-12-31T03:09:18.915Z,1019.01
2016-12-31T03:09:59.532Z,1019.02
2016-12-31T03:10:40.172Z,1019.07
2016-12-31T03:11:20.804Z,1019.04
2016-12-31T03:12:01.430Z,1019.07
2016-12-31T03:12:42.058Z,1019.02
2016-12-31T03:13:22.700Z,1019.03
2016-12-31T03:14:03.331Z,1019.06
2016-12-31T03:14:43.974Z,1019.03
2016-12-31T03:15:24.615Z,1019.01
2016-12-31T03:16:05.247Z,1019.02
2016-12-31T03:16:45.906Z,1019.05
2016-12-31T03:17:26.540Z,1019.01
2016-12-31T03:18:07.167Z,1019.04
2016-12-31T03:18:47.800Z,1019.04
2016-12-31T03:19:28.429Z,1019.05
2016-12-31T03:20:09.102Z,1019.1
2016-12-31T03:20:49.731Z,1019.05
2016-12-31T03:21:30.377Z,1019.04
2016-12-31T03:22:11.005Z,1019.07
2016-12-31T03:22:51.633Z,1019.05
2016-12-31T03:23:32.260Z,1019.07
2016-12-31T03:24:12.881Z,1019.05
2016-12-31T03:24:53.519Z,1019.05
2016-12-31T03:25:34.148Z,1019.02
2016-12-31T03:26:14.777Z,1019.08
2016-12-31T03:26:55.403Z,1019.05
2016-12-31T03:27:36.045Z,1019.03
2016-12-31T03:28:16.683Z,1019.03
2016-12-31T03:28:57.307Z,1019.04
2016-12-31T03:29:37.959Z,1019
2016-12-31T03:30:18.596Z,1019.02
2016-12-31T03:30:59.225Z,1019.03
2016-12-31T03:31:39.878Z,1019.01
2016-12-31T03:32:20.513Z,1019.01
2016-12-31T03:33:01.149Z,1018.99
2016-12-31T03:33:41.827Z,1018.99
2016-12-31T03:34:22.449Z,1019
2016-12-31T03:35:03.108Z,1019.01
2016-12-31T03:35:43.772Z,1018.97
2016-12-31T03:36:24.408Z,1018.97
2016-12-31T03:37:05.086Z,1019.01
2016-12-31T03:37:45.741Z,1019
2016-12-31T03:38:26.368Z,1018.96
2016-12-31T03:39:07.055Z,1018.96
2016-12-31T03:39:47.698Z,1018.98
2016-12-31T03:40:28.323Z,1018.96
2016-12-31T03:41:08.987Z,1018.99
2016-12-31T03:41:49.613Z,1018.99
2016-12-31T03:42:30.252Z,1018.96
2016-12-31T03:43:10.915Z,1018.98
2016-12-31T03:43:51.552Z,1018.99
2016-12-31T03:44:32.182Z,1018.99
2016-12-31T03:45:12.819Z,1018.93
2016-12-31T03:45:53.451Z,1018.91
2016-12-31T03:46:34.065Z,1018.96
2016-12-31T03:47:14.711Z,1018.93
2016-12-31T03:47:55.345Z,1018.92
2016-12-31T03:48:35.978Z,1018.89
2016-12-31T03:49:16.626Z,1018.88
2016-12-31T03:49:57.246Z,1018.88
2016-12-31T03:50:37.912Z,1018.9
2016-12-31T03:51:18.532Z,1018.87
2016-12-31T03:51:59.164Z,1018.89
2016-12-31T03:52:39.854Z,1018.9
2016-12-31T03:53:20.512Z,1018.86
2016-12-31T03:54:01.147Z,1018.88
2016-12-31T03:54:41.793Z,1018.87
2016-12-31T03:55:22.421Z,1018.89
2016-12-31T03:56:03.043Z,1018.85
2016-12-31T03:56:43.676Z,1018.83
2016-12-31T03:57:24.305Z,1018.85
2016-12-31T03:58:04.938Z,1018.81
2016-12-31T03:58:45.574Z,1018.84
2016-12-31T03:59:26.239Z,1018.88
2016-12-31T04:00:06.889Z,1018.84
2016-12-31T04:00:47.514Z,1018.89
2016-12-31T04:01:28.145Z,1018.85
2016-12-31T04:02:08.781Z,1018.85
2016-12-31T04:02:49.424Z,1018.87
2016-12-31T04:03:30.076Z,1018.81
2016-12-31T04:04:10.708Z,1018.84
2016-12-31T04:04:51.440Z,1018.84
2016-12-31T04:05:32.064Z,1018.83
2016-12-31T04:06:12.698Z,1018.83
2016-12-31T04:06:53.344Z,1018.84
2016-12-31T04:07:33.987Z,1018.84
2016-12-31T04:08:14.627Z,1018.83
2016-12-31T04:08:55.268Z,1018.85
2016-12-31T04:09:35.893Z,1018.79
2016-12-31T04:10:16.521Z,1018.84
2016-12-31T04:10:57.244Z,1018.83
2016-12-31T04:11:37.880Z,1018.8
2016-12-31T04:12:18.517Z,1018.83
2016-12-31T04:12:59.155Z,1018.82
2016-12-31T04:13:39.781Z,1018.8
2016-12-31T04:14:20.434Z,1018.83
2016-12-31T04:15:01.137Z,1018.81
2016-12-31T04:15:41.760Z,1018.85
2016-12-31T04:16:22.389Z,1018.84
2016-12-31T04:17:03.801Z,1018.87
2016-12-31T04:17:44.433Z,1018.89
2016-12-31T04:18:25.074Z,1018.89
2016-12-31T04:19:05.701Z,1018.89
2016-12-31T04:19:46.327Z,1018.88
2016-12-31T04:20:26.947Z,1018.91
2016-12-31T04:21:07.579Z,1018.94
2016-12-31T04:21:48.247Z,1018.88
2016-12-31T04:22:28.889Z,1018.86
2016-12-31T04:23:09.509Z,1018.91
2016-12-31T04:23:50.179Z,1018.91
2016-12-31T04:24:30.775Z,1018.89
2016-12-31T04:25:11.413Z,1018.88
2016-12-31T04:25:52.107Z,1018.89
2016-12-31T04:26:32.699Z,1018.86
2016-12-31T04:27:13.339Z,1018.91
2016-12-31T04:27:54.052Z,1018.9
2016-12-31T04:28:34.599Z,1018.89
2016-12-31T04:29:15.231Z,1018.93
2016-12-31T04:29:55.881Z,1018.94
2016-12-31T04:30:36.517Z,1018.95
2016-12-31T04:31:17.195Z,1018.9
2016-12-31T04:31:57.916Z,1018.97
2016-12-31T04:32:38.561Z,1018.96
2016-12-31T04:33:19.195Z,1019.02
2016-12-31T04:33:59.817Z,1018.93
2016-12-31T04:34:40.457Z,1018.95
2016-12-31T04:35:21.139Z,1018.94
2016-12-31T04:36:01.768Z,1018.95
2016-12-31T04:36:42.394Z,1018.96
2016-12-31T04:37:23.030Z,1018.99
2016-12-31T04:38:03.666Z,1018.98
2016-12-31T04:38:44.288Z,1018.98
2016-12-31T04:39:24.977Z,1018.96
2016-12-31T04:40:05.627Z,1018.97
2016-12-31T04:40:46.259Z,1019
2016-12-31T04:41:26.879Z,1018.97
2016-12-31T04:42:07.528Z,1018.95
2016-12-31T04:42:48.148Z,1018.96
2016-12-31T04:43:28.793Z,1018.97
2016-12-31T04:44:09.428Z,1018.98
2016-12-31T04:44:50.071Z,1019.01
2016-12-31T04:45:30.703Z,1019.02
2016-12-31T04:46:11.335Z,1019.03
2016-12-31T04:46:51.991Z,1019.06
2016-12-31T04:47:32.645Z,1019.02
2016-12-31T04:48:13.273Z,1019.06
2016-12-31T04:48:53.906Z,1019.08
2016-12-31T04:49:34.624Z,1019.09
2016-12-31T04:50:15.252Z,1019.04
2016-12-31T04:50:55.889Z,1019.06
2016-12-31T04:51:36.612Z,1019.05
2016-12-31T04:52:17.267Z,1019.07
2016-12-31T04:52:57.893Z,1019.07
2016-12-31T04:53:38.514Z,1019.08
2016-12-31T04:54:19.144Z,1019.07
2016-12-31T04:54:59.770Z,1019.05
2016-12-31T04:55:40.462Z,1019.12
2016-12-31T04:56:21.091Z,1019.06
2016-12-31T04:57:01.732Z,1019.08
2016-12-31T04:57:42.479Z,1019.08
2016-12-31T04:58:23.109Z,1019.08
2016-12-31T04:59:03.772Z,1019.05
2016-12-31T04:59:44.418Z,1019.08
2016-12-31T05:00:25.053Z,1019.09
2016-12-31T05:01:05.778Z,1019.03
2016-12-31T05:01:46.414Z,1019.03
2016-12-31T05:02:27.029Z,1019.07
2016-12-31T05:03:07.697Z,1019.04
2016-12-31T05:03:48.334Z,1019.04
2016-12-31T05:04:28.992Z,1019.02
2016-12-31T05:05:09.627Z,1019.02
2016-12-31T05:05:50.257Z,1019.05
2016-12-31T05:06:30.882Z,1019.03
2016-12-31T05:07:12.316Z,1019.01
2016-12-31T05:07:52.944Z,1019.04
2016-12-31T05:08:33.565Z,1019.03
2016-12-31T05:09:14.192Z,1019.02
2016-12-31T05:09:54.816Z,1018.99
2016-12-31T05:10:35.496Z,1019.03
2016-12-31T05:11:16.130Z,1019.09
2016-12-31T05:11:56.750Z,1019.1
2016-12-31T05:12:37.504Z,1019.09
2016-12-31T05:13:18.133Z,1019.17
2016-12-31T05:13:58.764Z,1019.1
2016-12-31T05:14:39.428Z,1019.11
2016-12-31T05:15:20.059Z,1019.15
2016-12-31T05:16:00.686Z,1019.15
2016-12-31T05:16:41.437Z,1019.12
2016-12-31T05:17:22.062Z,1019.17
2016-12-31T05:18:02.698Z,1019.14
2016-12-31T05:18:43.345Z,1019.15
2016-12-31T05:19:23.989Z,1019.18
2016-12-31T05:20:04.623Z,1019.18
2016-12-31T05:20:45.277Z,1019.17
2016-12-31T05:21:25.912Z,1019.15
2016-12-31T05:22:06.540Z,1019.13
2016-12-31T05:22:47.220Z,1019.13
2016-12-31T05:23:27.863Z,1019.15
2016-12-31T05:24:08.483Z,1019.15
2016-12-31T05:24:49.124Z,1019.16
2016-12-31T05:25:29.755Z,1019.16
2016-12-31T05:26:10.400Z,1019.14
2016-12-31T05:26:51.035Z,1019.15
2016-12-31T05:27:31.665Z,1019.16
2016-12-31T05:28:12.299Z,1019.13
2016-12-31T05:28:52.939Z,1019.17
2016-12-31T05:29:33.569Z,1019.13
2016-12-31T05:30:14.194Z,1019.12
2016-12-31T05:30:54.837Z,1019.17
2016-12-31T05:31:35.486Z,1019.11
2016-12-31T05:32:16.126Z,1019.1
2016-12-31T05:32:56.759Z,1019.13
2016-12-31T05:33:37.401Z,1019.16
2016-12-31T05:34:18.030Z,1019.15
2016-12-31T05:34:58.665Z,1019.14
2016-12-31T05:35:39.288Z,1019.16
2016-12-31T05:36:19.909Z,1019.12
2016-12-31T05:37:00.538Z,1019.12
2016-12-31T05:37:41.172Z,1019.12
2016-12-31T05:38:21.883Z,1019.12
2016-12-31T05:39:02.521Z,1019.14
2016-12-31T05:39:43.190Z,1019.14
2016-12-31T05:40:23.844Z,1019.1
2016-12-31T05:41:04.564Z,1019.14
2016-12-31T05:41:45.206Z,1019.11
2016-12-31T05:42:25.859Z,1019.11
2016-12-31T05:43:06.546Z,1019.08
2016-12-31T05:43:47.175Z,1019.16
2016-12-31T05:44:27.817Z,1019.1
2016-12-31T05:45:08.477Z,1019.09
2016-12-31T05:45:49.109Z,1019.08
2016-12-31T05:46:29.735Z,1019.08
2016-12-31T05:47:10.393Z,1019.11
2016-12-31T05:47:51.012Z,1019.1
2016-12-31T05:48:31.661Z,1019.12
2016-12-31T05:49:12.293Z,1019.1
2016-12-31T05:49:52.946Z,1019.12
2016-12-31T05:50:33.578Z,1019.16
2016-12-31T05:51:14.214Z,1019.15
2016-12-31T05:51:54.924Z,1019.2
2016-12-31T05:52:35.569Z,1019.17
2016-12-31T05:53:16.191Z,1019.18
2016-12-31T05:53:56.831Z,1019.15
2016-12-31T05:54:37.476Z,1019.15
2016-12-31T05:55:18.098Z,1019.16
2016-12-31T05:55:58.733Z,1019.22
2016-12-31T05:56:39.384Z,1019.2
2016-12-31T05:57:20.019Z,1019.17
2016-12-31T05:58:00.645Z,1019.18
2016-12-31T05:58:41.285Z,1019.18
2016-12-31T05:59:21.916Z,1019.22
2016-12-31T06:00:02.565Z,1019.19
2016-12-31T06:00:43.192Z,1019.22
2016-12-31T06:01:23.820Z,1019.22
2016-12-31T06:02:04.444Z,1019.2
2016-12-31T06:02:45.087Z,1019.21
2016-12-31T06:03:25.708Z,1019.18
2016-12-31T06:04:06.346Z,1019.2
2016-12-31T06:04:46.970Z,1019.21
2016-12-31T06:05:27.635Z,1019.25
2016-12-31T06:06:08.272Z,1019.24
2016-12-31T06:06:48.894Z,1019.24
2016-12-31T06:07:29.595Z,1019.25
2016-12-31T06:08:10.227Z,1019.26
2016-12-31T06:08:50.853Z,1019.25
2016-12-31T06:09:31.587Z,1019.26
2016-12-31T06:10:12.215Z,1019.28
2016-12-31T06:10:52.927Z,1019.25
2016-12-31T06:11:33.476Z,1019.26
2016-12-31T06:12:14.100Z,1019.25
2016-12-31T06:12:54.827Z,1019.26
2016-12-31T06:13:35.387Z,1019.23
2016-12-31T06:14:16.010Z,1019.27
2016-12-31T06:14:56.651Z,1019.26
2016-12-31T06:15:37.288Z,1019.26
2016-12-31T06:16:17.911Z,1019.23
2016-12-31T06:16:58.562Z,1019.27
2016-12-31T06:17:39.235Z,1019.26
2016-12-31T06:18:19.863Z,1019.26
2016-12-31T06:19:00.496Z,1019.26
2016-12-31T06:19:41.125Z,1019.24
2016-12-31T06:20:21.745Z,1019.28
2016-12-31T06:21:02.380Z,1019.26
2016-12-31T06:21:43.030Z,1019.27
2016-12-31T06:22:23.711Z,1019.26
2016-12-31T06:23:04.345Z,1019.28
2016-12-31T06:23:44.985Z,1019.27
2016-12-31T06:24:25.638Z,1019.23
2016-12-31T06:25:06.268Z,1019.23
2016-12-31T06:25:46.902Z,1019.18
2016-12-31T06:26:27.569Z,1019.2
2016-12-31T06:27:08.199Z,1019.15
2016-12-31T06:27:48.828Z,1019.17
2016-12-31T06:28:29.505Z,1019.17
2016-12-31T06:29:10.129Z,1019.15
2016-12-31T06:29:50.764Z,1019.18
2016-12-31T06:30:31.477Z,1019.2
2016-12-31T06:31:12.101Z,1019.16
2016-12-31T06:31:52.726Z,1019.18
2016-12-31T06:32:33.377Z,1019.19
2016-12-31T06:33:14.023Z,1019.19
2016-12-31T06:33:54.649Z,1019.22
2016-12-31T06:34:35.290Z,1019.24
2016-12-31T06:35:15.928Z,1019.23
2016-12-31T06:35:56.559Z,1019.24
2016-12-31T06:36:37.194Z,1019.24
2016-12-31T06:37:17.831Z,1019.22
2016-12-31T06:37:58.455Z,1019.22
2016-12-31T06:38:39.129Z,1019.19
2016-12-31T06:39:19.773Z,1019.24
2016-12-31T06:40:00.426Z,1019.21
2016-12-31T06:40:41.066Z,1019.21
2016-12-31T06:41:21.713Z,1019.24
2016-12-31T06:42:02.342Z,1019.22
2016-12-31T06:42:42.972Z,1019.23
2016-12-31T06:43:23.616Z,1019.24
2016-12-31T06:44:04.245Z,1019.26
2016-12-31T06:44:44.906Z,1019.25
2016-12-31T06:45:25.532Z,1019.26
2016-12-31T06:46:06.161Z,1019.27
2016-12-31T06:46:46.802Z,1019.3
2016-12-31T06:47:27.438Z,1019.31
2016-12-31T06:48:08.075Z,1019.27
2016-12-31T06:48:48.706Z,1019.29
2016-12-31T06:49:29.336Z,1019.29
2016-12-31T06:50:09.969Z,1019.3
2016-12-31T06:50:50.599Z,1019.3
2016-12-31T06:51:31.253Z,1019.29
2016-12-31T06:52:11.880Z,1019.36
2016-12-31T06:52:52.525Z,1019.29
2016-12-31T06:53:33.272Z,1019.34
2016-12-31T06:54:13.936Z,1019.36
2016-12-31T06:54:54.620Z,1019.37
2016-12-31T06:55:35.241Z,1019.41
2016-12-31T06:56:15.885Z,1019.36
2016-12-31T06:56:56.519Z,1019.35
2016-12-31T06:57:37.149Z,1019.4
2016-12-31T06:58:17.788Z,1019.36
2016-12-31T06:58:58.417Z,1019.34
2016-12-31T06:59:39.061Z,1019.34
2016-12-31T07:00:19.709Z,1019.36
2016-12-31T07:01:00.338Z,1019.35
2016-12-31T07:01:40.954Z,1019.37
2016-12-31T07:02:21.592Z,1019.35
2016-12-31T07:03:02.217Z,1019.38
2016-12-31T07:03:42.854Z,1019.39
2016-12-31T07:04:23.479Z,1019.4
2016-12-31T07:05:04.145Z,1019.38
2016-12-31T07:05:44.783Z,1019.38
2016-12-31T07:06:25.413Z,1019.4
2016-12-31T07:07:06.034Z,1019.38
2016-12-31T07:07:46.676Z,1019.42
2016-12-31T07:08:27.322Z,1019.38
2016-12-31T07:09:07.962Z,1019.38
2016-12-31T07:09:48.588Z,1019.37
2016-12-31T07:10:29.230Z,1019.42
2016-12-31T07:11:09.858Z,1019.41
2016-12-31T07:11:50.484Z,1019.39
2016-12-31T07:12:31.115Z,1019.43
2016-12-31T07:13:11.751Z,1019.4
2016-12-31T07:13:52.391Z,1019.41
2016-12-31T07:14:33.024Z,1019.41
2016-12-31T07:15:13.697Z,1019.42
2016-12-31T07:15:54.327Z,1019.4
2016-12-31T07:16:34.948Z,1019.39
2016-12-31T07:17:15.570Z,1019.42
2016-12-31T07:17:56.207Z,1019.41
2016-12-31T07:18:36.834Z,1019.37
2016-12-31T07:19:17.454Z,1019.41
2016-12-31T07:19:58.076Z,1019.41
2016-12-31T07:20:38.733Z,1019.37
2016-12-31T07:21:19.359Z,1019.39
2016-12-31T07:21:59.983Z,1019.39
2016-12-31T07:22:40.600Z,1019.39
2016-12-31T07:23:21.224Z,1019.41
2016-12-31T07:24:01.845Z,1019.4
2016-12-31T07:24:42.575Z,1019.44
2016-12-31T07:25:23.211Z,1019.45
2016-12-31T07:26:03.886Z,1019.43
2016-12-31T07:26:44.505Z,1019.43
2016-12-31T07:27:25.144Z,1019.5
2016-12-31T07:28:05.804Z,1019.49
2016-12-31T07:28:46.473Z,1019.5
2016-12-31T07:29:27.116Z,1019.49
2016-12-31T07:30:08.355Z,1019.45
2016-12-31T07:30:48.993Z,1019.49
2016-12-31T07:31:29.667Z,1019.5
2016-12-31T07:32:10.258Z,1019.46
2016-12-31T07:32:50.894Z,1019.48
2016-12-31T07:33:31.581Z,1019.47
2016-12-31T07:34:12.309Z,1019.47
2016-12-31T07:34:52.951Z,1019.47
2016-12-31T07:35:33.593Z,1019.45
2016-12-31T07:36:14.216Z,1019.46
2016-12-31T07:36:54.851Z,1019.48
2016-12-31T07:37:35.474Z,1019.5
2016-12-31T07:38:16.107Z,1019.5
2016-12-31T07:38:56.739Z,1019.5
2016-12-31T07:39:37.381Z,1019.5
2016-12-31T07:40:18.042Z,1019.51
2016-12-31T07:40:58.687Z,1019.51
2016-12-31T07:41:39.313Z,1019.55
2016-12-31T07:42:19.948Z,1019.55
2016-12-31T07:43:00.620Z,1019.5
2016-12-31T07:43:41.245Z,1019.5
2016-12-31T07:44:21.884Z,1019.56
2016-12-31T07:45:02.506Z,1019.53
2016-12-31T07:45:43.137Z,1019.54
2016-12-31T07:46:23.756Z,1019.47
2016-12-31T07:47:04.397Z,1019.5
2016-12-31T07:47:45.032Z,1019.53
2016-12-31T07:48:25.669Z,1019.53
2016-12-31T07:49:06.296Z,1019.53
2016-12-31T07:49:46.940Z,1019.54
2016-12-31T07:50:27.568Z,1019.53
2016-12-31T07:51:08.230Z,1019.54
2016-12-31T07:51:48.876Z,1019.58
2016-12-31T07:52:29.509Z,1019.57
2016-12-31T07:53:10.160Z,1019.58
2016-12-31T07:53:50.789Z,1019.58
2016-12-31T07:54:31.431Z,1019.61
2016-12-31T07:55:12.070Z,1019.58
2016-12-31T07:55:52.702Z,1019.57
2016-12-31T07:56:33.346Z,1019.58
2016-12-31T07:57:13.979Z,1019.57
2016-12-31T07:57:54.610Z,1019.61
2016-12-31T07:58:35.235Z,1019.59
2016-12-31T07:59:15.861Z,1019.6
2016-12-31T07:59:56.517Z,1019.64
2016-12-31T08:00:37.162Z,1019.58
2016-12-31T08:01:17.822Z,1019.61
2016-12-31T08:01:58.456Z,1019.58
2016-12-31T08:02:39.077Z,1019.6
2016-12-31T08:03:19.711Z,1019.62
2016-12-31T08:04:00.359Z,1019.62
2016-12-31T08:04:41.019Z,1019.62
2016-12-31T08:05:21.637Z,1019.66
2016-12-31T08:06:02.309Z,1019.64
2016-12-31T08:06:42.935Z,1019.65
2016-12-31T08:07:23.586Z,1019.62
2016-12-31T08:08:04.262Z,1019.67
2016-12-31T08:08:44.889Z,1019.68
2016-12-31T08:09:25.524Z,1019.66
2016-12-31T08:10:06.195Z,1019.64
2016-12-31T08:10:46.849Z,1019.66
2016-12-31T08:11:27.480Z,1019.67
2016-12-31T08:12:08.119Z,1019.65
2016-12-31T08:12:48.754Z,1019.66
2016-12-31T08:13:29.391Z,1019.64